createdAt,value
2018-08-17T00:00:29.673Z,99042.34
2018-08-17T00:02:58.289Z,99038.42
2018-08-17T00:05:27.058Z,99044.22
2018-08-17T00:07:55.752Z,99043.75
2018-08-17T00:10:24.362Z,99037.31
2018-08-17T00:12:53.105Z,99032.35
2018-08-17T00:15:21.876Z,99037.88
2018-08-17T00:17:50.461Z,99033.34
2018-08-17T00:20:19.070Z,99028.05
2018-08-17T00:22:47.616Z,99033.87
2018-08-17T00:25:16.224Z,99027.42
2018-08-17T00:27:44.818Z,99025.02
2018-08-17T00:30:13.429Z,99021.97
2018-08-17T00:32:41.987Z,99022.17
2018-08-17T00:35:10.585Z,99028.39
2018-08-17T00:37:39.170Z,99023.43
2018-08-17T00:40:08.526Z,99019.83
2018-08-17T00:42:37.235Z,99017.78
2018-08-17T00:45:06.468Z,99017.39
2018-08-17T00:47:35.052Z,99018.92
2018-08-17T00:50:05.075Z,99018.13
2018-08-17T00:52:33.644Z,99018.37
2018-08-17T00:55:02.177Z,99026.52
2018-08-17T00:57:30.761Z,99021.62
2018-08-17T00:59:59.309Z,99020.23
2018-08-17T01:02:27.939Z,99023.16
2018-08-17T01:04:56.474Z,99025.04
2018-08-17T01:07:25.104Z,99020.47
2018-08-17T01:09:53.677Z,99026.40
2018-08-17T01:12:22.385Z,99019.00
2018-08-17T01:14:50.973Z,99019.59
2018-08-17T01:17:19.612Z,99028.09
2018-08-17T01:19:48.160Z,99020.02
2018-08-17T01:22:17.423Z,99016.82
2018-08-17T01:24:45.972Z,99020.29
2018-08-17T01:27:14.567Z,99020.02
2018-08-17T01:29:43.126Z,99024.91
2018-08-17T01:32:11.735Z,99027.01
2018-08-17T01:34:40.282Z,99032.22
2018-08-17T01:37:08.881Z,99029.02
2018-08-17T01:39:37.401Z,99031.39
2018-08-17T01:42:06.053Z,99026.05
2018-08-17T01:44:34.576Z,99035.37
2018-08-17T01:47:03.152Z,99030.30
2018-08-17T01:49:32.329Z,99030.02
2018-08-17T01:52:00.972Z,99023.39
2018-08-17T01:54:29.480Z,99026.18
2018-08-17T01:56:58.045Z,99023.11
2018-08-17T01:59:26.622Z,99022.76
2018-08-17T02:01:56.059Z,99031.02
2018-08-17T02:04:24.587Z,99029.73
2018-08-17T02:06:53.189Z,99030.79
2018-08-17T02:09:21.773Z,99020.52
2018-08-17T02:11:50.328Z,99030.44
2018-08-17T02:14:18.844Z,99025.45
2018-08-17T02:16:47.432Z,99027.28
2018-08-17T02:19:15.977Z,99030.97
2018-08-17T02:21:44.585Z,99028.14
2018-08-17T02:24:13.104Z,99027.50
2018-08-17T02:26:41.628Z,99027.42
2018-08-17T02:29:11.393Z,99026.23
2018-08-17T02:31:39.948Z,99018.92
2018-08-17T02:34:08.952Z,99019.75
2018-08-17T02:36:37.469Z,99019.00
2018-08-17T02:39:07.384Z,99016.82
2018-08-17T02:41:35.904Z,99012.16
2018-08-17T02:44:04.532Z,99013.75
2018-08-17T02:46:33.049Z,99007.63
2018-08-17T02:49:01.639Z,99004.89
2018-08-17T02:51:30.158Z,99005.17
2018-08-17T02:53:58.705Z,99006.17
2018-08-17T02:56:27.675Z,99004.70
2018-08-17T02:58:56.273Z,98999.73
2018-08-17T03:01:24.793Z,99004.76
2018-08-17T03:03:53.360Z,99012.10
2018-08-17T03:06:21.881Z,99003.33
2018-08-17T03:08:50.440Z,99009.64
2018-08-17T03:11:18.968Z,99005.08
2018-08-17T03:13:47.521Z,99004.75
2018-08-17T03:16:16.068Z,99014.69
2018-08-17T03:18:44.621Z,98994.47
2018-08-17T03:21:13.137Z,99013.13
2018-08-17T03:23:41.688Z,99017.92
2018-08-17T03:26:10.768Z,99019.08
2018-08-17T03:28:39.310Z,99014.74
2018-08-17T03:31:08.220Z,99014.54
2018-08-17T03:33:36.779Z,99011.20
2018-08-17T03:36:05.302Z,99011.96
2018-08-17T03:38:33.857Z,99020.27
2018-08-17T03:41:02.393Z,99022.75
2018-08-17T03:43:31.001Z,99017.75
2018-08-17T03:45:59.517Z,99024.02
2018-08-17T03:48:28.078Z,99025.50
2018-08-17T03:50:56.620Z,99028.74
2018-08-17T03:53:31.563Z,99022.69
2018-08-17T03:56:00.068Z,99024.11
2018-08-17T03:58:28.615Z,99029.20
2018-08-17T04:00:57.180Z,99029.75
2018-08-17T04:03:25.806Z,99035.05
2018-08-17T04:05:54.341Z,99038.31
2018-08-17T04:08:22.889Z,99039.48
2018-08-17T04:10:51.470Z,99051.60
2018-08-17T04:13:20.157Z,99050.20
2018-08-17T04:15:49.085Z,99053.66
2018-08-17T04:18:17.912Z,99070.73
2018-08-17T04:20:46.464Z,99074.61
2018-08-17T04:23:14.982Z,99080.81
2018-08-17T04:25:44.085Z,99087.17
2018-08-17T04:28:12.612Z,99087.63
2018-08-17T04:30:41.208Z,99077.70
2018-08-17T04:33:10.892Z,99069.98
2018-08-17T04:35:42.176Z,99083.80
2018-08-17T04:38:10.892Z,99081.13
2018-08-17T04:40:39.525Z,99082.11
2018-08-17T04:43:08.765Z,99084.49
2018-08-17T04:45:37.705Z,99096.20
2018-08-17T04:48:06.244Z,99098.97
2018-08-17T04:50:41.557Z,99087.14
2018-08-17T04:53:10.064Z,99087.91
2018-08-17T04:55:38.608Z,99086.16
2018-08-17T04:58:07.140Z,99095.23
2018-08-17T05:00:35.692Z,99087.34
2018-08-17T05:03:04.251Z,99092.70
2018-08-17T05:05:32.809Z,99099.45
2018-08-17T05:08:01.333Z,99097.04
2018-08-17T05:10:29.953Z,99094.49
2018-08-17T05:12:58.460Z,99104.84
2018-08-17T05:15:28.404Z,99106.48
2018-08-17T05:17:56.917Z,99112.46
2018-08-17T05:20:25.489Z,99106.35
2018-08-17T05:22:54.131Z,99108.59
2018-08-17T05:25:22.901Z,99122.00
2018-08-17T05:27:55.097Z,99125.04
2018-08-17T05:30:24.231Z,99135.97
2018-08-17T05:32:52.760Z,99133.42
2018-08-17T05:35:24.177Z,99137.57
2018-08-17T05:37:52.705Z,99136.04
2018-08-17T05:40:21.293Z,99148.28
2018-08-17T05:42:49.828Z,99149.47
2018-08-17T05:45:18.397Z,99158.12
2018-08-17T05:47:46.912Z,99171.48
2018-08-17T05:50:15.784Z,99174.19
2018-08-17T05:52:44.337Z,99183.91
2018-08-17T05:55:15.919Z,99175.98
2018-08-17T05:57:44.464Z,99165.66
2018-08-17T06:00:13.061Z,99167.19
2018-08-17T06:02:42.000Z,99172.55
2018-08-17T06:05:17.105Z,99168.81
2018-08-17T06:07:52.221Z,99175.22
2018-08-17T06:10:27.011Z,99167.80
2018-08-17T06:13:02.077Z,99172.16
2018-08-17T06:15:37.183Z,99177.67
2018-08-17T06:18:12.639Z,99183.69
2018-08-17T06:20:46.592Z,99187.67
2018-08-17T06:23:22.297Z,99192.48
2018-08-17T06:25:57.287Z,99192.81
2018-08-17T06:28:26.040Z,99183.16
2018-08-17T06:30:54.656Z,99187.06
2018-08-17T06:33:23.247Z,99193.70
2018-08-17T06:35:51.820Z,99201.01
2018-08-17T06:38:20.376Z,99211.32
2018-08-17T06:40:48.949Z,99208.27
2018-08-17T06:43:17.518Z,99211.19
2018-08-17T06:45:47.012Z,99207.99
2018-08-17T06:48:15.569Z,99209.97
2018-08-17T06:50:44.257Z,99218.45
2018-08-17T06:53:12.740Z,99221.55
2018-08-17T06:55:41.316Z,99219.67
2018-08-17T06:58:09.860Z,99231.09
2018-08-17T07:00:38.441Z,99226.83
2018-08-17T07:03:08.410Z,99226.37
2018-08-17T07:05:37.656Z,99220.89
2018-08-17T07:08:06.210Z,99232.67
2018-08-17T07:10:34.754Z,99227.31
2018-08-17T07:13:03.340Z,99233.33
2018-08-17T07:15:31.877Z,99234.60
2018-08-17T07:18:00.441Z,99241.12
2018-08-17T07:20:29.049Z,99231.83
2018-08-17T07:22:57.621Z,99235.83
2018-08-17T07:25:26.231Z,99244.76
2018-08-17T07:27:54.860Z,99250.92
2018-08-17T07:30:23.454Z,99244.09
2018-08-17T07:32:52.020Z,99248.76
2018-08-17T07:35:20.621Z,99254.98
2018-08-17T07:37:49.524Z,99253.39
2018-08-17T07:40:18.061Z,99252.09
2018-08-17T07:42:47.396Z,99251.63
2018-08-17T07:45:15.961Z,99249.62
2018-08-17T07:47:44.921Z,99252.79
2018-08-17T07:50:18.581Z,99257.28
2018-08-17T07:52:47.573Z,99259.47
2018-08-17T07:55:16.108Z,99259.97
2018-08-17T07:57:44.705Z,99253.00
2018-08-17T08:00:14.260Z,99261.69
2018-08-17T08:02:42.840Z,99259.48
2018-08-17T08:05:12.137Z,99262.50
2018-08-17T08:07:40.712Z,99260.84
2018-08-17T08:10:10.525Z,99279.88
2018-08-17T08:12:47.064Z,99273.68
2018-08-17T08:15:15.781Z,99278.36
2018-08-17T08:17:44.340Z,99290.36
2018-08-17T08:20:24.036Z,99297.72
2018-08-17T08:23:03.681Z,99302.22
2018-08-17T08:25:32.200Z,99301.58
2018-08-17T08:28:00.759Z,99304.56
2018-08-17T08:30:29.281Z,99307.24
2018-08-17T08:32:57.839Z,99298.84
2018-08-17T08:35:26.384Z,99305.72
2018-08-17T08:37:54.978Z,99288.88
2018-08-17T08:40:23.504Z,99296.88
2018-08-17T08:42:52.153Z,99301.21
2018-08-17T08:45:21.654Z,99303.59
2018-08-17T08:47:50.272Z,99306.95
2018-08-17T08:50:18.844Z,99306.24
2018-08-17T08:52:47.406Z,99317.42
2018-08-17T08:55:15.941Z,99314.87
2018-08-17T08:57:44.515Z,99323.19
2018-08-17T09:00:13.065Z,99325.86
2018-08-17T09:02:41.625Z,99319.00
2018-08-17T09:05:10.485Z,99318.45
2018-08-17T09:07:39.376Z,99318.62
2018-08-17T09:10:16.063Z,99325.63
2018-08-17T09:12:45.757Z,99327.38
2018-08-17T09:15:19.472Z,99329.09
2018-08-17T09:17:48.044Z,99329.61
2018-08-17T09:20:17.256Z,99327.10
2018-08-17T09:22:45.830Z,99320.83
2018-08-17T09:25:14.373Z,99322.63
2018-08-17T09:27:42.932Z,99329.11
2018-08-17T09:30:14.421Z,99329.11
2018-08-17T09:32:42.928Z,99324.81
2018-08-17T09:35:12.621Z,99327.38
2018-08-17T09:37:41.244Z,99320.23
2018-08-17T09:40:10.609Z,99313.66
2018-08-17T09:42:39.367Z,99316.00
2018-08-17T09:45:10.077Z,99319.88
2018-08-17T09:47:38.599Z,99318.38
2018-08-17T09:50:09.617Z,99318.66
2018-08-17T09:52:38.337Z,99321.94
2018-08-17T09:55:06.993Z,99315.98
2018-08-17T09:57:35.595Z,99322.34
2018-08-17T10:00:05.092Z,99319.82
2018-08-17T10:02:38.781Z,99316.56
2018-08-17T10:05:12.705Z,99321.91
2018-08-17T10:07:46.565Z,99314.31
2018-08-17T10:10:21.317Z,99316.00
2018-08-17T10:12:51.076Z,99323.47
2018-08-17T10:15:19.656Z,99318.07
2018-08-17T10:17:48.448Z,99324.25
2018-08-17T10:20:19.507Z,99326.74
2018-08-17T10:22:48.096Z,99332.57
2018-08-17T10:25:23.365Z,99335.09
2018-08-17T10:27:53.221Z,99331.80
2018-08-17T10:30:22.654Z,99324.81
2018-08-17T10:33:01.629Z,99329.77
2018-08-17T10:35:35.404Z,99330.13
2018-08-17T10:38:06.092Z,99323.61
2018-08-17T10:40:34.679Z,99326.62
2018-08-17T10:43:04.765Z,99331.61
2018-08-17T10:45:33.707Z,99330.37
2018-08-17T10:48:02.281Z,99319.25
2018-08-17T10:50:32.205Z,99318.86
2018-08-17T10:53:02.731Z,99323.55
2018-08-17T10:55:43.176Z,99321.67
2018-08-17T10:58:13.480Z,99317.20
2018-08-17T11:00:42.385Z,99317.16
2018-08-17T11:03:11.019Z,99319.50
2018-08-17T11:05:39.743Z,99310.67
2018-08-17T11:08:08.381Z,99310.06
2018-08-17T11:10:37.005Z,99311.62
2018-08-17T11:13:05.555Z,99306.23
2018-08-17T11:15:34.141Z,99306.23
2018-08-17T11:18:02.706Z,99305.82
2018-08-17T11:20:31.292Z,99302.26
2018-08-17T11:23:02.079Z,99314.47
2018-08-17T11:25:32.375Z,99312.48
2018-08-17T11:28:01.573Z,99307.73
2018-08-17T11:30:32.226Z,99299.19
2018-08-17T11:33:00.862Z,99296.55
2018-08-17T11:35:30.129Z,99307.59
2018-08-17T11:37:58.729Z,99314.51
2018-08-17T11:40:27.361Z,99318.27
2018-08-17T11:42:57.043Z,99315.09
2018-08-17T11:45:27.072Z,99311.09
2018-08-17T11:48:01.061Z,99319.53
2018-08-17T11:50:38.734Z,99336.94
2018-08-17T11:53:10.726Z,99334.22
2018-08-17T11:55:39.816Z,99331.00
2018-08-17T11:58:16.709Z,99329.36
2018-08-17T12:00:49.289Z,99335.32
2018-08-17T12:03:24.390Z,99321.92
2018-08-17T12:06:00.265Z,99333.78
2018-08-17T12:08:30.584Z,99323.07
2018-08-17T12:11:05.025Z,99336.08
2018-08-17T12:13:38.712Z,99335.64
2018-08-17T12:16:15.666Z,99327.33
2018-08-17T12:18:48.466Z,99327.13
2018-08-17T12:21:19.567Z,99336.53
2018-08-17T12:23:50.623Z,99331.62
2018-08-17T12:26:26.031Z,99328.34
2018-08-17T12:28:59.692Z,99325.77
2018-08-17T12:31:33.876Z,99320.54
2018-08-17T12:34:02.982Z,99325.34
2018-08-17T12:36:40.404Z,99319.27
2018-08-17T12:39:26.586Z,99321.36
2018-08-17T12:42:03.700Z,99319.30
2018-08-17T12:44:44.565Z,99316.57
2018-08-17T12:47:20.657Z,99331.19
2018-08-17T12:49:50.651Z,99319.09
2018-08-17T12:52:31.244Z,99325.34
2018-08-17T12:55:00.794Z,99328.09
2018-08-17T12:57:34.867Z,99331.62
2018-08-17T13:00:03.898Z,99334.98
2018-08-17T13:02:33.178Z,99342.94
2018-08-17T13:05:05.039Z,99341.40
2018-08-17T13:07:34.765Z,99339.41
2018-08-17T13:10:05.173Z,99334.05
2018-08-17T13:12:34.902Z,99341.59
2018-08-17T13:15:06.688Z,99340.23
2018-08-17T13:17:40.454Z,99329.08
2018-08-17T13:20:11.036Z,99328.98
2018-08-17T13:22:40.447Z,99332.51
2018-08-17T13:25:09.599Z,99327.70
2018-08-17T13:27:38.468Z,99323.21
2018-08-17T13:30:10.605Z,99316.45
2018-08-17T13:32:40.915Z,99318.75
2018-08-17T13:35:10.987Z,99320.38
2018-08-17T13:37:39.749Z,99330.73
2018-08-17T13:40:11.484Z,99325.25
2018-08-17T13:42:44.665Z,99321.64
2018-08-17T13:45:14.017Z,99320.15
2018-08-17T13:47:42.581Z,99317.22
2018-08-17T13:50:11.224Z,99320.66
2018-08-17T13:52:44.717Z,99318.14
2018-08-17T13:55:14.021Z,99326.29
2018-08-17T13:57:42.565Z,99327.31
2018-08-17T14:00:12.597Z,99333.27
2018-08-17T14:02:43.205Z,99328.55
2018-08-17T14:05:12.379Z,99324.35
2018-08-17T14:07:41.629Z,99327.34
2018-08-17T14:10:11.730Z,99323.91
2018-08-17T14:12:42.585Z,99323.34
2018-08-17T14:15:12.356Z,99329.87
2018-08-17T14:17:41.357Z,99324.20
2018-08-17T14:20:13.906Z,99325.56
2018-08-17T14:22:43.009Z,99335.31
2018-08-17T14:25:11.997Z,99328.60
2018-08-17T14:27:41.692Z,99335.20
2018-08-17T14:30:18.911Z,99337.08
2018-08-17T14:32:47.483Z,99329.59
2018-08-17T14:35:16.059Z,99327.98
2018-08-17T14:37:44.610Z,99318.66
2018-08-17T14:40:13.170Z,99317.20
2018-08-17T14:42:41.777Z,99316.45
2018-08-17T14:45:11.105Z,99320.40
2018-08-17T14:47:39.781Z,99318.38
2018-08-17T14:50:10.104Z,99317.84
2018-08-17T14:52:38.771Z,99324.95
2018-08-17T14:55:07.682Z,99334.16
2018-08-17T14:57:36.268Z,99326.92
2018-08-17T15:00:05.946Z,99329.70
2018-08-17T15:02:34.502Z,99329.59
2018-08-17T15:05:03.069Z,99334.97
2018-08-17T15:07:32.099Z,99350.39
2018-08-17T15:10:00.637Z,99352.61
2018-08-17T15:12:29.184Z,99354.27
2018-08-17T15:14:57.780Z,99346.16
2018-08-17T15:17:26.360Z,99352.44
2018-08-17T15:19:55.757Z,99353.89
2018-08-17T15:22:24.645Z,99351.81
2018-08-17T15:24:53.231Z,99359.70
2018-08-17T15:27:24.190Z,99361.75
2018-08-17T15:29:55.952Z,99356.13
2018-08-17T15:32:24.523Z,99363.59
2018-08-17T15:34:53.141Z,99360.64
2018-08-17T15:37:21.700Z,99366.83
2018-08-17T15:39:50.277Z,99359.34
2018-08-17T15:42:18.826Z,99364.44
2018-08-17T15:44:47.429Z,99368.66
2018-08-17T15:47:15.984Z,99368.13
2018-08-17T15:49:55.124Z,99364.78
2018-08-17T15:52:23.684Z,99374.00
2018-08-17T15:54:52.264Z,99374.36
2018-08-17T15:57:20.808Z,99377.03
2018-08-17T15:59:49.424Z,99387.95
2018-08-17T16:02:17.965Z,99390.22
2018-08-17T16:04:46.580Z,99389.63
2018-08-17T16:07:15.105Z,99391.03
2018-08-17T16:09:43.673Z,99391.52
2018-08-17T16:12:13.566Z,99397.80
2018-08-17T16:14:42.683Z,99400.71
2018-08-17T16:17:11.242Z,99408.63
2018-08-17T16:19:39.829Z,99407.25
2018-08-17T16:22:08.412Z,99408.47
2018-08-17T16:24:36.984Z,99412.77
2018-08-17T16:27:05.721Z,99422.30
2018-08-17T16:29:34.304Z,99420.23
2018-08-17T16:32:02.956Z,99438.91
2018-08-17T16:34:31.465Z,99429.00
2018-08-17T16:37:00.044Z,99423.12
2018-08-17T16:39:28.628Z,99422.27
2018-08-17T16:41:57.816Z,99428.92
2018-08-17T16:44:26.442Z,99433.23
2018-08-17T16:46:54.992Z,99439.39
2018-08-17T16:49:23.560Z,99436.61
2018-08-17T16:51:52.180Z,99440.09
2018-08-17T16:54:20.759Z,99443.36
2018-08-17T16:56:49.273Z,99444.67
2018-08-17T16:59:17.847Z,99452.25
2018-08-17T17:01:46.991Z,99445.77
2018-08-17T17:04:15.549Z,99445.61
2018-08-17T17:06:44.065Z,99463.80
2018-08-17T17:09:12.680Z,99453.83
2018-08-17T17:11:41.276Z,99463.91
2018-08-17T17:14:09.859Z,99466.64
2018-08-17T17:16:52.865Z,99458.54
2018-08-17T17:19:22.492Z,99463.20
2018-08-17T17:21:51.965Z,99471.67
2018-08-17T17:24:20.968Z,99471.10
2018-08-17T17:26:49.545Z,99480.25
2018-08-17T17:29:18.064Z,99488.78
2018-08-17T17:31:50.493Z,99476.34
2018-08-17T17:34:19.005Z,99484.27
2018-08-17T17:36:47.578Z,99483.62
2018-08-17T17:39:16.351Z,99490.08
2018-08-17T17:41:44.920Z,99500.64
2018-08-17T17:44:13.465Z,99496.78
2018-08-17T17:46:42.112Z,99504.87
2018-08-17T17:49:11.088Z,99504.83
2018-08-17T17:51:39.845Z,99506.75
2018-08-17T17:54:08.487Z,99512.84
2018-08-17T17:56:37.138Z,99521.67
2018-08-17T17:59:11.071Z,99533.73
2018-08-17T18:01:39.688Z,99531.63
2018-08-17T18:04:08.261Z,99534.11
2018-08-17T18:06:36.848Z,99542.33
2018-08-17T18:09:06.260Z,99538.99
2018-08-17T18:11:34.850Z,99549.66
2018-08-17T18:14:03.399Z,99546.69
2018-08-17T18:16:31.981Z,99549.33
2018-08-17T18:19:00.559Z,99565.09
2018-08-17T18:21:32.170Z,99565.73
2018-08-17T18:24:06.008Z,99563.40
2018-08-17T18:26:34.843Z,99558.89
2018-08-17T18:29:03.483Z,99568.73
2018-08-17T18:31:32.079Z,99569.77
2018-08-17T18:34:00.604Z,99572.70
2018-08-17T18:36:29.190Z,99580.41
2018-08-17T18:38:58.199Z,99583.54
2018-08-17T18:41:27.012Z,99580.14
2018-08-17T18:43:55.580Z,99580.34
2018-08-17T18:46:24.153Z,99595.30
2018-08-17T18:48:52.688Z,99599.18
2018-08-17T18:51:21.324Z,99604.69
2018-08-17T18:53:49.912Z,99611.02
2018-08-17T18:56:18.557Z,99611.34
2018-08-17T18:58:47.091Z,99618.34
2018-08-17T19:01:15.749Z,99619.04
2018-08-17T19:03:44.325Z,99631.77
2018-08-17T19:06:12.917Z,99629.25
2018-08-17T19:08:41.449Z,99630.27
2018-08-17T19:11:10.022Z,99643.63
2018-08-17T19:13:38.742Z,99651.33
2018-08-17T19:16:07.346Z,99650.10
2018-08-17T19:18:35.871Z,99657.80
2018-08-17T19:21:10.318Z,99666.49
2018-08-17T19:23:38.943Z,99660.79
2018-08-17T19:26:08.952Z,99669.12
2018-08-17T19:28:37.681Z,99671.70
2018-08-17T19:31:06.492Z,99672.71
2018-08-17T19:33:35.074Z,99680.40
2018-08-17T19:36:04.022Z,99678.77
2018-08-17T19:38:42.773Z,99675.58
2018-08-17T19:41:11.320Z,99679.73
2018-08-17T19:43:39.954Z,99679.94
2018-08-17T19:46:08.568Z,99688.13
2018-08-17T19:48:37.097Z,99692.70
2018-08-17T19:51:10.889Z,99695.53
2018-08-17T19:53:39.635Z,99703.77
2018-08-17T19:56:08.180Z,99705.27
2018-08-17T19:58:36.811Z,99707.98
2018-08-17T20:01:05.437Z,99705.72
2018-08-17T20:03:34.027Z,99710.52
2018-08-17T20:06:03.143Z,99709.33
2018-08-17T20:08:31.925Z,99699.55
2018-08-17T20:11:00.450Z,99706.52
2018-08-17T20:13:29.069Z,99700.06
2018-08-17T20:15:57.712Z,99697.66
2018-08-17T20:18:26.264Z,99693.97
2018-08-17T20:20:54.784Z,99693.25
2018-08-17T20:23:23.411Z,99693.83
2018-08-17T20:25:52.007Z,99689.97
2018-08-17T20:28:20.645Z,99687.23
2018-08-17T20:30:49.536Z,99687.42
2018-08-17T20:33:27.093Z,99687.16
2018-08-17T20:35:56.173Z,99694.72
2018-08-17T20:38:24.998Z,99697.66
2018-08-17T20:41:01.915Z,99697.20
2018-08-17T20:43:34.440Z,99696.06
2018-08-17T20:46:17.901Z,99691.83
2018-08-17T20:48:51.180Z,99695.94
2018-08-17T20:51:26.228Z,99703.13
2018-08-17T20:54:01.878Z,99696.89
2018-08-17T20:56:35.593Z,99701.45
2018-08-17T20:59:11.224Z,99703.26
2018-08-17T21:01:40.182Z,99703.48
2018-08-17T21:04:16.715Z,99703.30
2018-08-17T21:06:48.673Z,99706.45
2018-08-17T21:09:19.101Z,99704.48
2018-08-17T21:12:07.382Z,99699.66
2018-08-17T21:14:36.974Z,99709.63
2018-08-17T21:17:07.353Z,99710.88
2018-08-17T21:19:40.769Z,99709.00
2018-08-17T21:22:15.685Z,99713.84
2018-08-17T21:24:47.274Z,99707.89
2018-08-17T21:27:20.552Z,99715.31
2018-08-17T21:29:53.568Z,99716.84
2018-08-17T21:32:24.198Z,99714.48
2018-08-17T21:34:54.701Z,99720.83
2018-08-17T21:37:29.487Z,99723.06
2018-08-17T21:39:59.023Z,99724.89
2018-08-17T21:42:28.903Z,99725.27
2018-08-17T21:44:58.272Z,99724.20
2018-08-17T21:47:28.174Z,99724.26
2018-08-17T21:50:05.263Z,99721.59
2018-08-17T21:52:35.736Z,99729.05
2018-08-17T21:55:06.843Z,99731.11
2018-08-17T21:57:41.135Z,99730.95
2018-08-17T22:00:33.923Z,99726.95
2018-08-17T22:03:17.278Z,99726.42
2018-08-17T22:05:51.368Z,99736.92
2018-08-17T22:08:27.080Z,99741.55
2018-08-17T22:11:04.177Z,99742.17
2018-08-17T22:13:49.343Z,99746.89
2018-08-17T22:16:32.258Z,99751.84
2018-08-17T22:19:24.193Z,99753.34
2018-08-17T22:22:04.371Z,99757.09
2018-08-17T22:24:52.770Z,99771.90
2018-08-17T22:27:37.968Z,99773.98
2018-08-17T22:30:22.214Z,99777.16
2018-08-17T22:33:07.983Z,99775.79
2018-08-17T22:35:45.678Z,99781.53
2018-08-17T22:38:32.430Z,99778.53
2018-08-17T22:41:16.639Z,99776.77
2018-08-17T22:43:59.446Z,99782.95
2018-08-17T22:46:40.780Z,99780.31
2018-08-17T22:49:32.243Z,99782.95
2018-08-17T22:55:03.640Z,99781.80
2018-08-17T22:57:39.819Z,99781.73
2018-08-17T23:00:24.452Z,99788.55
2018-08-17T23:03:13.670Z,99786.48
2018-08-17T23:05:57.098Z,99795.55
2018-08-17T23:08:40.215Z,99792.16
2018-08-17T23:11:26.249Z,99799.31
2018-08-17T23:14:06.301Z,99797.95
2018-08-17T23:16:51.119Z,99799.73
2018-08-17T23:19:35.976Z,99812.23
2018-08-17T23:22:13.857Z,99814.43
2018-08-17T23:24:52.528Z,99812.98
2018-08-17T23:27:29.591Z,99818.95
2018-08-17T23:30:07.746Z,99815.76
2018-08-17T23:32:46.983Z,99812.61
2018-08-17T23:35:22.043Z,99813.77
2018-08-17T23:38:00.409Z,99814.73
2018-08-17T23:40:41.090Z,99813.88
2018-08-17T23:43:18.522Z,99817.09
2018-08-17T23:45:57.267Z,99819.52
2018-08-17T23:48:39.171Z,99819.64
2018-08-17T23:51:17.110Z,99818.44
2018-08-17T23:53:53.643Z,99819.05
2018-08-17T23:56:31.032Z,99822.05
2018-08-17T23:59:06.359Z,99822.92
